KMQI

Dare County Regional Airport

Manteo, North Carolina, USA
METAR KMQI 201945Z AUTO 18005KT 4SM +RA SCT034 BKN040 OVC055 27/24 A3002 RMK AO2 P0006 T02690241
Observed Flight Rules
Aug-20 @ 19:45 UTC (45 minutes ago) Marginal Visual Flight Rules
Wind Visibility Clouds Conditions
180° at 5 knots 4 miles
  • Scattered at 3,400' AGL
  • Broken at 4,000' AGL
  • Overcast at 5,500' AGL
  • Heavy Rain
Temperatures Readings Precipitation
Current 27°C / 81°F
Dewpoint 24°C / 75°F
Humidity 84%
Altimeter 30.02" Hg
Pressure 1017 hPa
Elevation 4
Current Rain 0.06
METAR KMQI 201945Z AUTO 18005KT 4SM +RA SCT034 BKN040 OVC055 27/24 A3002 RMK AO2 P0006 T02690241
Observed Flight Rules
Aug-20 @ 19:45 UTC
(45 minutes ago)
MVFR
Wind Visibility
180° at 5 knots 4 miles
Clouds
  • Scattered at 3,400' AGL
  • Broken at 4,000' AGL
  • Overcast at 5,500' AGL
Conditions
  • Heavy Rain
Temperature Dewpoint
27°C / 81°F 24°C / 75°F
Humidity Altimeter Pressure
84% 30.02" Hg 1017 hPa
Current Rain
0.06